createdAt,value
2024-02-29T00:00:58.739Z,8.60
2024-02-29T00:03:25.844Z,8.60
2024-02-29T00:05:55.263Z,8.60
2024-02-29T00:08:23.061Z,8.60
2024-02-29T00:10:50.189Z,8.60
2024-02-29T00:13:17.425Z,8.60
2024-02-29T00:15:44.558Z,8.60
2024-02-29T00:18:11.712Z,8.70
2024-02-29T00:20:38.713Z,8.60
2024-02-29T00:23:06.311Z,8.70
2024-02-29T00:25:33.802Z,8.70
2024-02-29T00:28:00.851Z,8.70
2024-02-29T00:30:28.368Z,8.70
2024-02-29T00:32:58.312Z,8.60
2024-02-29T00:35:27.824Z,8.60
2024-02-29T00:37:55.257Z,8.60
2024-02-29T00:40:23.070Z,8.60
2024-02-29T00:42:51.682Z,8.60
2024-02-29T00:45:18.832Z,8.60
2024-02-29T00:47:45.890Z,8.60
2024-02-29T00:50:13.235Z,8.60
2024-02-29T00:52:40.345Z,8.60
2024-02-29T00:55:09.202Z,8.60
2024-02-29T00:57:36.449Z,8.60
2024-02-29T01:00:04.034Z,8.60
2024-02-29T01:02:31.130Z,8.60
2024-02-29T01:04:58.034Z,8.60
2024-02-29T01:07:25.112Z,8.60
2024-02-29T01:09:52.316Z,8.60
2024-02-29T01:12:19.343Z,8.60
2024-02-29T01:14:46.486Z,8.60
2024-02-29T01:17:14.185Z,8.60
2024-02-29T01:19:41.620Z,8.60
2024-02-29T01:22:08.727Z,8.60
2024-02-29T01:24:35.939Z,8.60
2024-02-29T01:27:03.357Z,8.70
2024-02-29T01:29:30.814Z,8.60
2024-02-29T01:31:58.039Z,8.70
2024-02-29T01:34:25.100Z,8.70
2024-02-29T01:36:52.167Z,8.70
2024-02-29T01:39:19.513Z,8.70
2024-02-29T01:41:46.571Z,8.60
2024-02-29T01:44:14.096Z,8.60
2024-02-29T01:46:41.320Z,8.60
2024-02-29T01:49:09.552Z,8.70
2024-02-29T01:51:37.476Z,8.60
2024-02-29T01:54:04.766Z,8.70
2024-02-29T01:56:31.964Z,8.70
2024-02-29T01:59:00.851Z,8.70
2024-02-29T02:01:28.248Z,8.60
2024-02-29T02:03:56.271Z,8.60
2024-02-29T02:06:23.658Z,8.60
2024-02-29T02:08:50.873Z,8.70
2024-02-29T02:11:18.117Z,8.70
2024-02-29T02:13:45.360Z,8.70
2024-02-29T02:16:13.665Z,8.60
2024-02-29T02:18:40.712Z,8.60
2024-02-29T02:21:07.985Z,8.60
2024-02-29T02:23:35.446Z,8.60
2024-02-29T02:26:03.890Z,8.60
2024-02-29T02:28:31.453Z,8.70
2024-02-29T02:30:58.945Z,8.60
2024-02-29T02:33:26.177Z,8.70
2024-02-29T02:35:53.560Z,8.60
2024-02-29T02:38:21.118Z,8.60
2024-02-29T02:40:48.413Z,8.60
2024-02-29T02:43:15.805Z,8.60
2024-02-29T02:45:44.757Z,8.60
2024-02-29T02:48:11.915Z,8.60
2024-02-29T02:50:39.297Z,8.60
2024-02-29T02:53:08.680Z,8.60
2024-02-29T02:55:35.737Z,8.60
2024-02-29T02:58:03.046Z,8.60
2024-02-29T03:00:30.057Z,8.60
2024-02-29T03:02:57.432Z,8.60
2024-02-29T03:05:24.652Z,8.60
2024-02-29T03:07:51.727Z,8.60
2024-02-29T03:10:19.145Z,8.60
2024-02-29T03:12:48.767Z,8.60
2024-02-29T03:15:16.594Z,8.60
2024-02-29T03:17:43.785Z,8.60
2024-02-29T03:20:13.611Z,8.60
2024-02-29T03:22:44.407Z,8.60
2024-02-29T03:25:15.666Z,8.60
2024-02-29T03:27:43.400Z,8.60
2024-02-29T03:30:10.766Z,8.60
2024-02-29T03:32:37.804Z,8.60
2024-02-29T03:35:06.916Z,8.60
2024-02-29T03:37:34.049Z,8.60
2024-02-29T03:40:01.579Z,8.60
2024-02-29T03:42:28.846Z,8.60
2024-02-29T03:44:57.938Z,8.60
2024-02-29T03:47:25.677Z,8.60
2024-02-29T03:49:52.830Z,8.60
2024-02-29T03:52:20.279Z,8.60
2024-02-29T03:54:47.614Z,8.60
2024-02-29T03:57:14.675Z,8.60
2024-02-29T03:59:47.582Z,8.60
2024-02-29T04:02:15.887Z,8.60
2024-02-29T04:04:43.331Z,8.60
2024-02-29T04:07:10.675Z,8.60
2024-02-29T04:09:38.237Z,8.60
2024-02-29T04:12:05.615Z,8.60
2024-02-29T04:14:35.392Z,8.60
2024-02-29T04:17:04.852Z,8.60
2024-02-29T04:19:31.911Z,8.60
2024-02-29T04:21:59.098Z,8.60
2024-02-29T04:24:26.304Z,8.60
2024-02-29T04:26:53.404Z,8.60
2024-02-29T04:29:20.379Z,8.60
2024-02-29T04:31:49.505Z,8.60
2024-02-29T04:34:17.310Z,8.60
2024-02-29T04:36:44.520Z,8.60
2024-02-29T04:39:11.766Z,8.60
2024-02-29T04:41:38.765Z,8.60
2024-02-29T04:44:06.018Z,8.60
2024-02-29T04:46:33.414Z,8.60
2024-02-29T04:49:00.862Z,8.60
2024-02-29T04:51:27.837Z,8.60
2024-02-29T04:53:54.833Z,8.60
2024-02-29T04:56:22.117Z,8.50
2024-02-29T04:58:49.994Z,8.50
2024-02-29T05:01:18.849Z,8.50
2024-02-29T05:03:45.982Z,8.60
2024-02-29T05:06:17.843Z,8.50
2024-02-29T05:08:45.880Z,8.50
2024-02-29T05:11:13.980Z,8.50
2024-02-29T05:13:41.141Z,8.60
2024-02-29T05:16:09.199Z,8.50
2024-02-29T05:18:36.754Z,8.50
2024-02-29T05:21:07.038Z,8.50
2024-02-29T05:23:35.335Z,8.50
2024-02-29T05:26:03.719Z,8.60
2024-02-29T05:28:31.015Z,8.60
2024-02-29T05:30:59.419Z,8.60
2024-02-29T05:33:26.475Z,8.60
2024-02-29T05:35:53.781Z,8.60
2024-02-29T05:38:23.879Z,8.60
2024-02-29T05:40:51.398Z,8.60
2024-02-29T05:43:19.059Z,8.60
2024-02-29T05:45:48.818Z,8.60
2024-02-29T05:48:15.814Z,8.60
2024-02-29T05:50:43.500Z,8.60
2024-02-29T05:53:11.878Z,8.50
2024-02-29T05:55:41.645Z,8.60
2024-02-29T05:58:09.197Z,8.60
2024-02-29T06:00:36.447Z,8.60
2024-02-29T06:03:03.843Z,8.50
2024-02-29T06:05:32.414Z,8.50
2024-02-29T06:07:59.492Z,8.50
2024-02-29T06:10:26.645Z,8.50
2024-02-29T06:12:53.945Z,8.50
2024-02-29T06:15:22.334Z,8.50
2024-02-29T06:17:50.705Z,8.50
2024-02-29T06:20:17.765Z,8.50
2024-02-29T06:22:45.312Z,8.50
2024-02-29T06:25:12.710Z,8.50
2024-02-29T06:27:40.670Z,8.50
2024-02-29T06:30:09.701Z,8.50
2024-02-29T06:32:37.105Z,8.40
2024-02-29T06:35:04.899Z,8.50
2024-02-29T06:37:32.115Z,8.50
2024-02-29T06:39:59.894Z,8.50
2024-02-29T06:42:30.081Z,8.50
2024-02-29T06:44:57.229Z,8.40
2024-02-29T06:47:24.349Z,8.40
2024-02-29T06:49:51.396Z,8.40
2024-02-29T06:52:18.982Z,8.40
2024-02-29T06:54:46.603Z,8.40
2024-02-29T06:57:14.166Z,8.40
2024-02-29T06:59:41.813Z,8.40
2024-02-29T07:02:15.611Z,8.40
2024-02-29T07:04:43.969Z,8.40
2024-02-29T07:07:11.304Z,8.40
2024-02-29T07:09:50.487Z,8.40
2024-02-29T07:12:49.032Z,8.40
2024-02-29T07:15:22.689Z,8.40
2024-02-29T07:17:49.931Z,8.40
2024-02-29T07:20:18.122Z,8.40
2024-02-29T07:22:53.565Z,8.40
2024-02-29T07:25:27.614Z,8.40
2024-02-29T07:27:56.174Z,8.30
2024-02-29T07:30:23.412Z,8.30
2024-02-29T07:32:57.623Z,8.30
2024-02-29T07:35:28.669Z,8.30
2024-02-29T07:37:55.921Z,8.30
2024-02-29T07:40:23.122Z,8.30
2024-02-29T07:42:50.737Z,8.30
2024-02-29T07:45:20.851Z,8.30
2024-02-29T07:47:57.701Z,8.30
2024-02-29T07:50:25.515Z,8.30
2024-02-29T07:52:53.139Z,8.30
2024-02-29T07:55:20.639Z,8.30
2024-02-29T07:57:49.390Z,8.40
2024-02-29T08:00:17.074Z,8.40
2024-02-29T08:02:45.032Z,8.40
2024-02-29T08:05:12.413Z,8.30
2024-02-29T08:07:40.293Z,8.30
2024-02-29T08:10:08.059Z,8.40
2024-02-29T08:12:36.270Z,8.40
2024-02-29T08:15:05.223Z,8.30
2024-02-29T08:17:32.568Z,8.40
2024-02-29T08:19:59.918Z,8.40
2024-02-29T08:22:27.300Z,8.30
2024-02-29T08:24:54.502Z,8.40
2024-02-29T08:27:21.974Z,8.40
2024-02-29T08:29:50.346Z,8.40
2024-02-29T08:32:18.489Z,8.40
2024-02-29T08:34:46.006Z,8.50
2024-02-29T08:37:13.744Z,8.50
2024-02-29T08:39:42.699Z,8.60
2024-02-29T08:42:12.929Z,8.60
2024-02-29T08:44:44.768Z,8.60
2024-02-29T08:47:11.929Z,8.60
2024-02-29T08:49:39.941Z,8.60
2024-02-29T08:52:09.873Z,8.60
2024-02-29T08:54:39.099Z,8.80
2024-02-29T08:57:08.381Z,8.80
2024-02-29T08:59:35.582Z,8.80
2024-02-29T09:02:04.455Z,8.80
2024-02-29T09:04:32.233Z,8.90
2024-02-29T09:06:59.729Z,9.00
2024-02-29T09:09:29.317Z,9.00
2024-02-29T09:11:57.263Z,9.00
2024-02-29T09:14:27.425Z,9.00
2024-02-29T09:16:54.521Z,9.10
2024-02-29T09:19:22.987Z,9.10
2024-02-29T09:21:50.505Z,9.20
2024-02-29T09:24:19.351Z,9.20
2024-02-29T09:26:46.570Z,9.20
2024-02-29T09:29:14.229Z,9.20
2024-02-29T09:31:42.642Z,9.20
2024-02-29T09:34:09.841Z,9.40
2024-02-29T09:36:38.735Z,9.40
2024-02-29T09:39:06.843Z,9.30
2024-02-29T09:41:50.902Z,9.40
2024-02-29T09:44:21.714Z,9.40
2024-02-29T09:46:52.780Z,9.50
2024-02-29T09:49:21.352Z,9.50
2024-02-29T09:51:51.850Z,9.60
2024-02-29T09:54:19.302Z,9.70
2024-02-29T09:56:47.360Z,9.80
2024-02-29T09:59:19.033Z,9.90
2024-02-29T10:01:53.745Z,9.90
2024-02-29T10:04:21.122Z,10.00
2024-02-29T10:06:50.158Z,10.10
2024-02-29T10:09:17.583Z,10.10
2024-02-29T10:11:49.927Z,10.00
2024-02-29T10:14:27.188Z,10.00
2024-02-29T10:16:55.409Z,9.90
2024-02-29T10:19:24.616Z,9.80
2024-02-29T10:21:54.470Z,9.90
2024-02-29T10:24:25.342Z,9.90
2024-02-29T10:26:55.626Z,9.90
2024-02-29T10:29:23.973Z,9.80
2024-02-29T10:31:57.678Z,9.80
2024-02-29T10:34:25.057Z,9.80
2024-02-29T10:36:52.547Z,9.70
2024-02-29T10:39:19.798Z,9.80
2024-02-29T10:41:52.877Z,9.80
2024-02-29T10:44:23.172Z,9.80
2024-02-29T10:46:52.237Z,9.80
2024-02-29T10:49:28.299Z,9.80
2024-02-29T10:52:12.939Z,9.80
2024-02-29T10:54:47.169Z,10.00
2024-02-29T10:57:17.202Z,10.00
2024-02-29T10:59:53.296Z,10.10
2024-02-29T11:02:21.850Z,10.20
2024-02-29T11:04:49.497Z,10.20
2024-02-29T11:07:17.458Z,10.10
2024-02-29T11:09:45.215Z,10.10
2024-02-29T11:12:17.313Z,10.10
2024-02-29T11:14:46.169Z,10.10
2024-02-29T11:17:17.150Z,10.00
2024-02-29T11:19:54.817Z,10.00
2024-02-29T11:22:34.526Z,10.00
2024-02-29T11:25:11.017Z,10.00
2024-02-29T11:27:39.407Z,10.00
2024-02-29T11:30:07.744Z,10.10
2024-02-29T11:32:36.000Z,10.10
2024-02-29T11:35:06.138Z,10.10
2024-02-29T11:37:35.500Z,10.10
2024-02-29T11:40:07.118Z,10.10
2024-02-29T11:42:38.341Z,10.20
2024-02-29T11:45:06.612Z,10.20
2024-02-29T11:47:34.220Z,10.10
2024-02-29T11:50:04.328Z,10.10
2024-02-29T11:52:31.459Z,10.10
2024-02-29T11:54:58.463Z,10.20
2024-02-29T11:57:25.711Z,10.20
2024-02-29T11:59:56.269Z,10.20
2024-02-29T12:02:23.944Z,10.20
2024-02-29T12:04:51.252Z,10.20
2024-02-29T12:07:19.334Z,10.20
2024-02-29T12:09:47.309Z,10.20
2024-02-29T12:12:14.903Z,10.20
2024-02-29T12:14:44.187Z,10.20
2024-02-29T12:17:11.655Z,10.20
2024-02-29T12:19:41.380Z,10.20
2024-02-29T12:22:20.011Z,10.30
2024-02-29T12:24:47.247Z,10.30
2024-02-29T12:27:14.497Z,10.30
2024-02-29T12:29:43.116Z,10.30
2024-02-29T12:32:11.031Z,10.30
2024-02-29T12:34:39.055Z,10.30
2024-02-29T12:37:10.209Z,10.20
2024-02-29T12:39:37.556Z,10.20
2024-02-29T12:42:05.527Z,10.30
2024-02-29T12:44:32.644Z,10.20
2024-02-29T12:46:59.952Z,10.20
2024-02-29T12:49:27.463Z,10.20
2024-02-29T12:51:56.380Z,10.20
2024-02-29T12:54:23.941Z,10.30
2024-02-29T12:56:51.500Z,10.30
2024-02-29T12:59:19.779Z,10.30
2024-02-29T13:01:49.913Z,10.30
2024-02-29T13:04:16.970Z,10.30
2024-02-29T13:06:44.338Z,10.30
2024-02-29T13:09:13.749Z,10.30
2024-02-29T13:11:43.114Z,10.30
2024-02-29T13:14:10.284Z,10.30
2024-02-29T13:16:37.500Z,10.30
2024-02-29T13:19:04.721Z,10.30
2024-02-29T13:21:32.702Z,10.30
2024-02-29T13:24:03.083Z,10.30
2024-02-29T13:26:30.306Z,10.30
2024-02-29T13:28:59.528Z,10.30
2024-02-29T13:31:27.106Z,10.30
2024-02-29T13:33:54.129Z,10.30
2024-02-29T13:36:21.476Z,10.30
2024-02-29T13:38:51.052Z,10.40
2024-02-29T13:41:18.291Z,10.40
2024-02-29T13:43:45.347Z,10.40
2024-02-29T13:46:14.183Z,10.40
2024-02-29T13:48:47.161Z,10.40
2024-02-29T13:51:15.614Z,10.40
2024-02-29T13:53:42.792Z,10.40
2024-02-29T13:56:10.565Z,10.40
2024-02-29T13:58:37.981Z,10.40
2024-02-29T14:01:08.491Z,10.40
2024-02-29T14:03:37.615Z,10.40
2024-02-29T14:06:05.318Z,10.40
2024-02-29T14:08:34.598Z,10.40
2024-02-29T14:11:02.193Z,10.50
2024-02-29T14:13:29.328Z,10.40
2024-02-29T14:15:56.610Z,10.50
2024-02-29T14:18:24.441Z,10.50
2024-02-29T14:20:51.961Z,10.50
2024-02-29T14:23:23.134Z,10.50
2024-02-29T14:25:50.862Z,10.50
2024-02-29T14:28:18.918Z,10.50
2024-02-29T14:30:46.281Z,10.50
2024-02-29T14:33:13.998Z,10.50
2024-02-29T14:35:41.099Z,10.50
2024-02-29T14:38:08.187Z,10.50
2024-02-29T14:40:35.448Z,10.50
2024-02-29T14:43:02.747Z,10.50
2024-02-29T14:45:30.530Z,10.50
2024-02-29T14:47:57.858Z,10.50
2024-02-29T14:50:25.585Z,10.60
2024-02-29T14:52:56.165Z,10.60
2024-02-29T14:55:23.265Z,10.50
2024-02-29T14:57:51.024Z,10.60
2024-02-29T15:00:18.900Z,10.60
2024-02-29T15:02:46.967Z,10.60
2024-02-29T15:05:14.613Z,10.60
2024-02-29T15:07:45.263Z,10.60
2024-02-29T15:10:13.256Z,10.60
2024-02-29T15:12:42.198Z,10.60
2024-02-29T15:15:10.173Z,10.60
2024-02-29T15:17:40.524Z,10.60
2024-02-29T15:20:10.211Z,10.60
2024-02-29T15:22:37.879Z,10.60
2024-02-29T15:25:23.182Z,10.60
2024-02-29T15:27:55.328Z,10.60
2024-02-29T15:30:22.542Z,10.70
2024-02-29T15:32:52.381Z,10.70
2024-02-29T15:35:19.490Z,10.70
2024-02-29T15:37:46.961Z,10.70
2024-02-29T15:40:14.158Z,10.70
2024-02-29T15:42:44.121Z,10.70
2024-02-29T15:45:14.257Z,10.70
2024-02-29T15:47:42.066Z,10.70
2024-02-29T15:50:09.829Z,10.80
2024-02-29T15:52:37.985Z,10.80
2024-02-29T15:55:08.885Z,10.80
2024-02-29T15:57:36.175Z,10.80
2024-02-29T16:00:05.603Z,10.80
2024-02-29T16:02:35.870Z,10.80
2024-02-29T16:05:03.282Z,10.80
2024-02-29T16:07:30.694Z,10.80
2024-02-29T16:09:57.800Z,10.80
2024-02-29T16:12:27.382Z,10.80
2024-02-29T16:14:55.037Z,10.80
2024-02-29T16:17:22.570Z,10.80
2024-02-29T16:19:50.433Z,10.80
2024-02-29T16:22:18.167Z,10.80
2024-02-29T16:24:45.273Z,10.80
2024-02-29T16:27:15.510Z,10.90
2024-02-29T16:29:43.188Z,10.80
2024-02-29T16:32:11.156Z,10.80
2024-02-29T16:34:38.526Z,10.80
2024-02-29T16:37:06.132Z,10.80
2024-02-29T16:39:33.634Z,10.80
2024-02-29T16:42:06.182Z,10.80
2024-02-29T16:44:33.373Z,10.80
2024-02-29T16:47:05.493Z,10.80
2024-02-29T16:49:33.046Z,10.80
2024-02-29T16:52:00.322Z,10.80
2024-02-29T16:54:27.496Z,10.80
2024-02-29T16:56:55.387Z,10.70
2024-02-29T16:59:22.569Z,10.80
2024-02-29T17:01:50.852Z,10.80
2024-02-29T17:04:17.971Z,10.80
2024-02-29T17:06:45.217Z,10.80
2024-02-29T17:09:12.727Z,10.80
2024-02-29T17:11:40.410Z,10.80
2024-02-29T17:14:07.519Z,10.80
2024-02-29T17:16:35.324Z,10.80
2024-02-29T17:19:02.660Z,10.80
2024-02-29T17:21:29.933Z,10.80
2024-02-29T17:23:57.337Z,10.80
2024-02-29T17:26:25.252Z,10.80
2024-02-29T17:28:52.886Z,10.70
2024-02-29T17:31:21.258Z,10.70
2024-02-29T17:33:51.586Z,10.70
2024-02-29T17:36:19.271Z,10.80
2024-02-29T17:38:46.788Z,10.80
2024-02-29T17:41:15.953Z,10.70
2024-02-29T17:43:43.683Z,10.80
2024-02-29T17:46:11.044Z,10.80
2024-02-29T17:48:40.878Z,10.70
2024-02-29T17:51:08.416Z,10.80
2024-02-29T17:53:35.790Z,10.80
2024-02-29T17:56:04.834Z,10.80
2024-02-29T17:58:32.737Z,10.80
2024-02-29T18:01:03.423Z,10.80
2024-02-29T18:03:30.693Z,10.80
2024-02-29T18:06:00.885Z,10.80
2024-02-29T18:08:30.138Z,10.80
2024-02-29T18:10:57.359Z,10.80
2024-02-29T18:13:25.183Z,10.80
2024-02-29T18:15:52.531Z,10.80
2024-02-29T18:18:20.662Z,10.80
2024-02-29T18:20:50.934Z,10.80
2024-02-29T18:23:21.150Z,10.80
2024-02-29T18:25:51.232Z,10.80
2024-02-29T18:28:18.658Z,10.80
2024-02-29T18:30:45.997Z,10.80
2024-02-29T18:33:14.072Z,10.80
2024-02-29T18:35:41.671Z,10.80
2024-02-29T18:38:11.540Z,10.80
2024-02-29T18:40:39.658Z,10.80
2024-02-29T18:43:09.692Z,10.80
2024-02-29T18:45:36.760Z,10.80
2024-02-29T18:48:04.602Z,10.70
2024-02-29T18:50:32.301Z,10.80
2024-02-29T18:52:59.864Z,10.70
2024-02-29T18:57:57.459Z,10.70
2024-02-29T19:00:25.705Z,10.70
2024-02-29T19:02:53.219Z,10.70
2024-02-29T19:05:20.563Z,10.70
2024-02-29T19:07:47.792Z,10.70
2024-02-29T19:10:15.651Z,10.70
2024-02-29T19:12:43.123Z,10.70
2024-02-29T19:15:10.666Z,10.70
2024-02-29T19:17:38.083Z,10.70
2024-02-29T19:20:12.216Z,10.70
2024-02-29T19:22:40.406Z,10.70
2024-02-29T19:25:08.191Z,10.70
2024-02-29T19:27:36.438Z,10.70
2024-02-29T19:30:08.915Z,10.70
2024-02-29T19:32:36.005Z,10.70
2024-02-29T19:35:07.423Z,10.70
2024-02-29T19:37:34.792Z,10.70
2024-02-29T19:40:02.355Z,10.70
2024-02-29T19:42:29.487Z,10.70
2024-02-29T19:44:59.437Z,10.70
2024-02-29T19:47:26.855Z,10.70
2024-02-29T19:49:53.951Z,10.70
2024-02-29T19:52:21.394Z,10.70
2024-02-29T19:54:48.776Z,10.70
2024-02-29T19:57:15.909Z,10.60
2024-02-29T19:59:42.900Z,10.60
2024-02-29T20:02:09.952Z,10.60
2024-02-29T20:04:37.225Z,10.70
2024-02-29T20:07:04.508Z,10.60
2024-02-29T20:09:31.871Z,10.60
2024-02-29T20:11:59.128Z,10.60
2024-02-29T20:14:26.150Z,10.60
2024-02-29T20:16:53.339Z,10.60
2024-02-29T20:19:20.476Z,10.60
2024-02-29T20:21:50.606Z,10.60
2024-02-29T20:24:18.113Z,10.60
2024-02-29T20:26:45.790Z,10.60
2024-02-29T20:29:13.014Z,10.60
2024-02-29T20:31:40.269Z,10.60
2024-02-29T20:34:08.114Z,10.60
2024-02-29T20:36:35.279Z,10.60
2024-02-29T20:39:02.395Z,10.60
2024-02-29T20:41:29.596Z,10.60
2024-02-29T20:43:56.643Z,10.60
2024-02-29T20:46:24.177Z,10.50
2024-02-29T20:48:52.029Z,10.60
2024-02-29T20:51:19.313Z,10.50
2024-02-29T20:53:46.375Z,10.50
2024-02-29T20:56:13.677Z,10.50
2024-02-29T20:58:40.759Z,10.50
2024-02-29T21:01:08.115Z,10.50
2024-02-29T21:03:35.227Z,10.50
2024-02-29T21:06:02.316Z,10.50
2024-02-29T21:08:35.310Z,10.50
2024-02-29T21:11:03.248Z,10.50
2024-02-29T21:13:32.115Z,10.50
2024-02-29T21:15:59.469Z,10.50
2024-02-29T21:18:26.573Z,10.50
2024-02-29T21:20:53.685Z,10.50
2024-02-29T21:23:20.824Z,10.50
2024-02-29T21:25:47.972Z,10.50
2024-02-29T21:28:15.361Z,10.50
2024-02-29T21:30:42.654Z,10.50
2024-02-29T21:33:12.941Z,10.50
2024-02-29T21:35:40.065Z,10.50
2024-02-29T21:38:10.109Z,10.50
2024-02-29T21:40:37.596Z,10.50
2024-02-29T21:43:07.704Z,10.50
2024-02-29T21:45:35.048Z,10.50
2024-02-29T21:48:02.423Z,10.40
2024-02-29T21:50:30.432Z,10.50
2024-02-29T21:52:59.233Z,10.50
2024-02-29T21:55:26.483Z,10.40
2024-02-29T21:57:54.472Z,10.40
2024-02-29T22:00:22.058Z,10.40
2024-02-29T22:02:49.718Z,10.40
2024-02-29T22:05:20.313Z,10.40
2024-02-29T22:07:48.942Z,10.40
2024-02-29T22:10:16.077Z,10.40
2024-02-29T22:12:43.232Z,10.40
2024-02-29T22:15:11.896Z,10.40
2024-02-29T22:17:39.567Z,10.40
2024-02-29T22:20:08.654Z,10.40
2024-02-29T22:22:36.917Z,10.40
2024-02-29T22:25:04.369Z,10.40
2024-02-29T22:27:31.434Z,10.40
2024-02-29T22:29:58.607Z,10.30
2024-02-29T22:32:26.052Z,10.30
2024-02-29T22:34:53.113Z,10.30
2024-02-29T22:37:20.319Z,10.30
2024-02-29T22:39:48.772Z,10.30
2024-02-29T22:42:16.604Z,10.30
2024-02-29T22:44:44.282Z,10.30
2024-02-29T22:47:11.491Z,10.30
2024-02-29T22:49:38.711Z,10.30
2024-02-29T22:52:06.940Z,10.30
2024-02-29T22:54:34.414Z,10.30
2024-02-29T22:57:01.525Z,10.30
2024-02-29T22:59:28.844Z,10.30
2024-02-29T23:01:56.244Z,10.30
2024-02-29T23:04:23.598Z,10.20
2024-02-29T23:06:50.874Z,10.30
2024-02-29T23:09:20.754Z,10.20
2024-02-29T23:11:48.437Z,10.20
2024-02-29T23:14:15.574Z,10.20
2024-02-29T23:16:45.486Z,10.20
2024-02-29T23:19:12.535Z,10.20
2024-02-29T23:21:39.828Z,10.20
2024-02-29T23:24:07.888Z,10.20
2024-02-29T23:26:35.110Z,10.20
2024-02-29T23:29:02.503Z,10.20
2024-02-29T23:31:33.102Z,10.20
2024-02-29T23:34:00.413Z,10.20
2024-02-29T23:36:27.572Z,10.20
2024-02-29T23:38:54.643Z,10.20
2024-02-29T23:41:23.710Z,10.20
2024-02-29T23:43:55.301Z,10.20
2024-02-29T23:46:23.171Z,10.20
2024-02-29T23:48:50.481Z,10.20
2024-02-29T23:51:18.315Z,10.10
2024-02-29T23:53:45.372Z,10.10
2024-02-29T23:56:12.403Z,10.10
2024-02-29T23:58:41.478Z,10.10
